createdAt,value
2022-08-02T00:00:08.123Z,1018.23
2022-08-02T00:05:08.667Z,1018.23
2022-08-02T00:10:08.344Z,1018.23
2022-08-02T00:15:08.046Z,1018.1
2022-08-02T00:20:07.768Z,1018.18
2022-08-02T00:25:08.458Z,1018.07
2022-08-02T00:30:08.136Z,1018.21
2022-08-02T00:35:07.840Z,1018.3
2022-08-02T00:40:08.547Z,1018.28
2022-08-02T00:45:08.210Z,1018.15
2022-08-02T00:50:07.889Z,1018.17
2022-08-02T00:55:08.611Z,1018.15
2022-08-02T01:00:07.713Z,1018.21
2022-08-02T01:05:08.403Z,1018.17
2022-08-02T01:10:08.120Z,1018.08
2022-08-02T01:15:07.813Z,1018.02
2022-08-02T01:20:08.515Z,1018.03
2022-08-02T01:25:08.219Z,1017.92
2022-08-02T01:30:07.948Z,1017.94
2022-08-02T01:35:07.659Z,1017.95
2022-08-02T01:40:11.110Z,1017.92
2022-08-02T01:45:07.821Z,1017.96
2022-08-02T01:50:08.495Z,1017.98
2022-08-02T01:55:09.838Z,1017.79
2022-08-02T02:00:08.642Z,1017.83
2022-08-02T02:05:08.318Z,1017.82
2022-08-02T02:10:08.009Z,1017.8
2022-08-02T02:15:07.715Z,1017.71
2022-08-02T02:20:08.425Z,1017.68
2022-08-02T02:25:08.111Z,1017.73
2022-08-02T02:30:08.014Z,1017.58
2022-08-02T02:35:07.731Z,1017.53
2022-08-02T02:40:08.458Z,1017.53
2022-08-02T02:45:08.185Z,1017.49
2022-08-02T02:50:07.898Z,1017.51
2022-08-02T02:55:08.627Z,1017.51
2022-08-02T03:00:08.310Z,1017.53
2022-08-02T03:05:07.992Z,1017.53
2022-08-02T03:10:07.719Z,1017.37
2022-08-02T03:15:08.419Z,1017.27
2022-08-02T03:20:08.157Z,1017.19
2022-08-02T03:25:07.841Z,1017.14
2022-08-02T03:30:08.515Z,1017.23
2022-08-02T03:35:08.246Z,1017.27
2022-08-02T03:40:07.947Z,1017.35
2022-08-02T03:45:08.878Z,1017.18
2022-08-02T03:50:07.862Z,1017.21
2022-08-02T03:55:08.553Z,1017.22
2022-08-02T04:00:08.267Z,1017.31
2022-08-02T04:05:02.140Z,1017.28
2022-08-02T04:10:01.953Z,1017.28
2022-08-02T04:15:04.624Z,1017.25
2022-08-02T04:20:09.928Z,1017.22
2022-08-02T04:25:02.663Z,1017.24
2022-08-02T04:30:01.991Z,1017.26
2022-08-02T04:35:20.027Z,1017.23
2022-08-02T04:40:07.262Z,1017.34
2022-08-02T04:45:02.290Z,1017.37
2022-08-02T04:50:02.185Z,1017.34
2022-08-02T04:55:02.043Z,1017.33
2022-08-02T05:00:01.996Z,1017.33
2022-08-02T05:05:03.751Z,1017.28
2022-08-02T05:10:02.367Z,1017.29
2022-08-02T05:15:01.858Z,1017.25
2022-08-02T05:20:02.751Z,1017.22
2022-08-02T05:25:02.548Z,1017.12
2022-08-02T05:30:02.357Z,1017.18
2022-08-02T05:35:02.231Z,1017.06
2022-08-02T05:40:02.024Z,1017.1
2022-08-02T05:45:01.948Z,1017.05
2022-08-02T05:50:01.779Z,1017.01
2022-08-02T05:55:02.676Z,1017.08
2022-08-02T06:00:02.860Z,1017.16
2022-08-02T06:05:01.988Z,1017.08
2022-08-02T06:10:01.835Z,1017.11
2022-08-02T06:15:02.725Z,1017.15
2022-08-02T06:20:02.548Z,1017.01
2022-08-02T06:25:02.304Z,1017.15
2022-08-02T06:30:02.202Z,1017.04
2022-08-02T06:35:01.975Z,1017.02
2022-08-02T06:40:01.845Z,1016.98
2022-08-02T06:45:02.687Z,1017.09
2022-08-02T06:50:02.684Z,1016.93
2022-08-02T06:55:02.678Z,1016.89
2022-08-02T07:00:02.622Z,1016.91
2022-08-02T07:05:02.412Z,1016.88
2022-08-02T07:10:02.339Z,1016.93
2022-08-02T07:15:02.464Z,1016.82
2022-08-02T07:20:02.464Z,1016.81
2022-08-02T07:25:02.458Z,1016.82
2022-08-02T07:30:02.391Z,1016.83
2022-08-02T07:35:06.518Z,1016.64
2022-08-02T07:40:02.112Z,1016.64
2022-08-02T07:45:02.562Z,1016.56
2022-08-02T07:50:02.444Z,1016.56
2022-08-02T07:55:02.198Z,1016.45
2022-08-02T08:00:02.192Z,1016.47
2022-08-02T08:05:01.946Z,1016.46
2022-08-02T08:10:01.797Z,1016.4
2022-08-02T08:15:02.655Z,1016.3
2022-08-02T08:20:02.481Z,1016.34
2022-08-02T08:25:02.281Z,1016.28
2022-08-02T08:30:01.832Z,1016.3
2022-08-02T08:35:02.585Z,1016.23
2022-08-02T08:40:02.495Z,1016.08
2022-08-02T08:45:02.330Z,1016.12
2022-08-02T08:50:02.674Z,1016.07
2022-08-02T08:55:02.489Z,1016.15
2022-08-02T09:00:02.230Z,1016.14
2022-08-02T09:05:02.033Z,1016.16
2022-08-02T09:10:01.823Z,1016.16
2022-08-02T09:15:02.645Z,1016.16
2022-08-02T09:20:02.464Z,1016.14
2022-08-02T09:25:02.329Z,1016.13
2022-08-02T09:30:12.172Z,1016.18
2022-08-02T09:35:02.258Z,1016.16
2022-08-02T09:40:02.896Z,1016.16
2022-08-02T09:45:02.663Z,1016.15
2022-08-02T09:50:02.755Z,1016.13
2022-08-02T09:55:02.945Z,1016.17
2022-08-02T10:00:01.969Z,1016.03
2022-08-02T10:05:02.673Z,1016.05
2022-08-02T10:10:02.718Z,1016.02
2022-08-02T10:15:02.720Z,1015.98
2022-08-02T10:20:04.939Z,1015.91
2022-08-02T10:25:01.976Z,1015.92
2022-08-02T10:30:01.799Z,1015.91
2022-08-02T10:35:18.708Z,1015.88
2022-08-02T10:40:02.090Z,1015.88
2022-08-02T10:45:01.930Z,1015.88
2022-08-02T10:50:02.822Z,1015.79
2022-08-02T10:55:02.712Z,1015.92
2022-08-02T11:00:02.652Z,1015.89
2022-08-02T11:05:02.459Z,1015.99
2022-08-02T11:10:02.294Z,1015.97
2022-08-02T11:15:02.104Z,1015.79
2022-08-02T11:20:01.952Z,1015.81
2022-08-02T11:25:01.747Z,1015.75
2022-08-02T11:30:02.509Z,1015.78
2022-08-02T11:35:02.228Z,1015.62
2022-08-02T11:40:02.119Z,1015.65
2022-08-02T11:45:02.106Z,1015.71
2022-08-02T11:50:01.942Z,1015.6
2022-08-02T11:55:02.110Z,1015.61
2022-08-02T12:00:01.894Z,1015.64
2022-08-02T12:05:02.835Z,1015.6
2022-08-02T12:10:02.188Z,1015.58
2022-08-02T12:15:02.337Z,1015.54
2022-08-02T12:20:02.163Z,1015.64
2022-08-02T12:25:01.990Z,1015.58
2022-08-02T12:30:01.907Z,1015.54
2022-08-02T12:35:02.890Z,1015.39
2022-08-02T12:40:02.787Z,1015.41
2022-08-02T12:45:02.745Z,1015.44
2022-08-02T12:50:02.805Z,1015.46
2022-08-02T12:55:02.766Z,1015.41
2022-08-02T13:00:02.743Z,1015.41
2022-08-02T13:05:02.951Z,1015.35
2022-08-02T13:10:03.440Z,1015.34
2022-08-02T13:15:02.611Z,1015.23
2022-08-02T13:20:02.474Z,1015.22
2022-08-02T13:25:02.562Z,1015.2
2022-08-02T13:30:02.409Z,1015.21
2022-08-02T13:35:02.242Z,1015.14
2022-08-02T13:45:13.642Z,1014.97
2022-08-02T13:50:02.128Z,1015.1
2022-08-02T13:55:02.301Z,1015.07
2022-08-02T14:00:02.240Z,1014.89
2022-08-02T14:05:02.136Z,1014.98
2022-08-02T14:10:01.926Z,1014.85
2022-08-02T14:15:02.757Z,1014.88
2022-08-02T14:20:02.609Z,1014.86
2022-08-02T14:25:09.074Z,1014.77
2022-08-02T14:30:02.337Z,1014.75
2022-08-02T14:35:02.168Z,1014.62
2022-08-02T14:40:02.207Z,1014.72
2022-08-02T14:45:02.123Z,1014.63
2022-08-02T14:50:02.117Z,1014.56
2022-08-02T14:55:01.940Z,1014.53
2022-08-02T15:00:02.806Z,1014.58
2022-08-02T15:05:02.628Z,1014.53
2022-08-02T15:10:02.658Z,1014.56
2022-08-02T15:15:02.639Z,1014.37
2022-08-02T15:20:23.431Z,1014.34
2022-08-02T15:25:02.744Z,1014.33
2022-08-02T15:30:02.588Z,1014.26
2022-08-02T15:35:03.196Z,1014.28
2022-08-02T15:40:02.197Z,1014.38
2022-08-02T15:45:02.224Z,1014.26
2022-08-02T15:50:02.056Z,1014.31
2022-08-02T15:55:06.918Z,1014.19
2022-08-02T16:00:02.193Z,1014.12
2022-08-02T16:05:02.019Z,1014.07
2022-08-02T16:10:01.918Z,1013.95
2022-08-02T16:15:02.409Z,1014.07
2022-08-02T16:20:02.226Z,1013.93
2022-08-02T16:25:02.027Z,1013.94
2022-08-02T16:30:01.957Z,1013.94
2022-08-02T16:35:07.451Z,1013.99
2022-08-02T16:40:02.135Z,1014.08
2022-08-02T16:45:02.032Z,1013.93
2022-08-02T16:50:04.837Z,1013.86
2022-08-02T16:55:02.352Z,1013.87
2022-08-02T17:00:02.982Z,1013.88
2022-08-02T17:05:02.066Z,1013.79
2022-08-02T17:10:06.382Z,1013.8
2022-08-02T17:15:09.028Z,1013.71
2022-08-02T17:20:02.722Z,1013.66
2022-08-02T17:25:02.518Z,1013.78
2022-08-02T17:30:02.432Z,1013.82
2022-08-02T17:35:03.775Z,1013.74
2022-08-02T17:40:01.912Z,1013.76
2022-08-02T17:45:16.519Z,1013.82
2022-08-02T17:50:02.104Z,1013.81
2022-08-02T17:55:02.341Z,1013.82
2022-08-02T18:00:04.288Z,1013.9
2022-08-02T18:05:02.706Z,1013.91
2022-08-02T18:10:02.398Z,1013.87
2022-08-02T18:15:02.381Z,1013.88
2022-08-02T18:20:10.186Z,1013.83
2022-08-02T18:25:09.401Z,1013.78
2022-08-02T18:30:04.525Z,1013.83
2022-08-02T18:35:01.785Z,1013.87
2022-08-02T18:40:02.443Z,1013.82
2022-08-02T18:45:02.348Z,1013.86
2022-08-02T18:50:02.093Z,1013.86
2022-08-02T18:55:05.202Z,1013.94
2022-08-02T19:00:02.142Z,1013.86
2022-08-02T19:05:01.998Z,1013.84
2022-08-02T19:10:01.826Z,1013.86
2022-08-02T19:15:02.589Z,1013.84
2022-08-02T19:20:02.392Z,1013.84
2022-08-02T19:25:02.226Z,1013.82
2022-08-02T19:30:02.534Z,1013.77
2022-08-02T19:35:02.491Z,1013.9
2022-08-02T19:40:01.912Z,1014.0
2022-08-02T19:45:02.662Z,1013.9
2022-08-02T19:50:02.233Z,1014.03
2022-08-02T19:56:01.138Z,1014.05
2022-08-02T20:00:02.069Z,1014.1
2022-08-02T20:05:01.880Z,1014.13
2022-08-02T20:10:02.015Z,1014.08
2022-08-02T20:15:01.903Z,1014.09
2022-08-02T20:20:02.680Z,1014.0
2022-08-02T20:25:07.828Z,1014.1
2022-08-02T20:30:01.846Z,1014.14
2022-08-02T20:35:08.570Z,1014.11
2022-08-02T20:40:08.265Z,1014.14
2022-08-02T20:45:08.004Z,1014.12
2022-08-02T20:50:07.794Z,1014.13
2022-08-02T20:55:08.178Z,1014.06
2022-08-02T21:00:07.825Z,1014.13
2022-08-02T21:05:17.291Z,1014.15
2022-08-02T21:10:08.205Z,1014.13
2022-08-02T21:15:08.600Z,1014.15
2022-08-02T21:20:08.208Z,1014.3
2022-08-02T21:25:09.047Z,1014.28
2022-08-02T21:30:07.880Z,1014.24
2022-08-02T21:35:07.729Z,1014.2
2022-08-02T21:40:08.634Z,1014.15
2022-08-02T21:45:16.788Z,1014.26
2022-08-02T21:50:13.278Z,1014.24
2022-08-02T21:55:07.876Z,1014.28
2022-08-02T22:00:08.532Z,1014.15
2022-08-02T22:05:14.127Z,1014.26
2022-08-02T22:10:08.215Z,1014.29
2022-08-02T22:15:10.285Z,1014.26
2022-08-02T22:20:08.318Z,1014.32
2022-08-02T22:25:10.083Z,1014.34
2022-08-02T22:30:08.077Z,1014.35
2022-08-02T22:35:08.893Z,1014.3
2022-08-02T22:40:09.080Z,1014.44
2022-08-02T22:45:08.478Z,1014.45
2022-08-02T22:50:11.771Z,1014.54
2022-08-02T22:55:08.638Z,1014.51
2022-08-02T23:00:58.939Z,1014.46
2022-08-02T23:05:08.304Z,1014.55
2022-08-02T23:10:08.009Z,1014.46
2022-08-02T23:15:07.683Z,1014.42
2022-08-02T23:20:08.413Z,1014.48
2022-08-02T23:25:08.130Z,1014.48
2022-08-02T23:30:07.841Z,1014.47
2022-08-02T23:35:08.562Z,1014.54
2022-08-02T23:40:08.285Z,1014.45
2022-08-02T23:45:07.974Z,1014.42
2022-08-02T23:50:07.689Z,1014.46
2022-08-02T23:55:08.388Z,1014.51
